Wednesday, September 19, 2018, 2:41 PM EDT
Back to Local

KNYG, Quantico Marine Corps Airfac

Location: MCB Quantico, VA, United States Lat: 38.5
Local Time: 2:41 PM EDT (18:41 GMT) Lon: -77.3
Time Zone: US/Eastern Elev: 13 ft

Show me the last for .
Show Decoded

2018-09-19 13:56 METAR KNYG 191756Z 35014G19KT 10SM SCT045 31/21 A2994 RMK AO2 SLP140 T03060211
                 10306 20217 56004 =
2018-09-19 12:56 METAR KNYG 191656Z 35011KT 10SM SCT040 SCT200 30/21 A2995 RMK AO2 SLP142
                 T03000211 =
2018-09-19 11:56 METAR KNYG 191556Z 02009KT 10SM SCT035 29/22 A2994 RMK AO2 SLP141 T02890217 =
2018-09-19 10:56 METAR KNYG 191456Z 01009G20KT 10SM SCT050 28/21 A2995 RMK AO2 SLP144 T02780211
                 51014 =
2018-09-19 09:56 METAR KNYG 191356Z 01012KT 10SM CLR 27/21 A2994 RMK AO2 SLP141 T02670211 =
2018-09-19 08:56 METAR KNYG 191256Z 34007KT 10SM FEW200 25/21 A2993 RMK AO2 SLP135 T02500211 =
2018-09-19 07:56 METAR KNYG 191156Z 32006KT 10SM SCT140 SCT200 22/21 A2991 RMK AO2 SLP130 70021
                 T02170206 10217 20200 51015 =
2018-09-19 06:56 METAR KNYG 191056Z AUTO 31004KT 10SM CLR 21/20 A2990 RMK AO2 SLP125 T02110200 =
2018-09-19 05:56 METAR KNYG 190956Z AUTO 00000KT 10SM CLR 21/20 A2989 RMK AO2 SLP121 T02110200 =
2018-09-19 04:56 METAR KNYG 190856Z AUTO 00000KT 10SM CLR 21/20 A2987 RMK AO2 SLP115 T02110200
                 51004 =
2018-09-19 03:56 METAR KNYG 190756Z AUTO 00000KT 10SM CLR 22/20 A2987 RMK AO2 SLP115 T02170200 =
2018-09-19 02:56 METAR KNYG 190656Z AUTO 31005KT 10SM CLR 21/20 A2986 RMK AO2 SLP114 T02110200 =
2018-09-19 01:56 METAR KNYG 190556Z AUTO 32009KT 10SM CLR 22/20 A2986 RMK AO2 SLP111 T02170200
                 10256 20217 55001 =
2018-09-19 00:56 METAR KNYG 190456Z AUTO 32010KT 10SM CLR 22/20 A2985 RMK AO2 SLP109 T02220200
                 402830217 =
2018-09-18 23:56 METAR KNYG 190356Z AUTO 32008KT 10SM CLR 22/20 A2985 RMK AO2 SLP109 T02220200 =
2018-09-18 22:56 METAR KNYG 190256Z 33008KT 10SM CLR 23/20 A2986 RMK AO2 SLP112 T02280200 51011 =
2018-09-18 21:56 METAR KNYG 190156Z 32008KT 10SM CLR 23/21 A2985 RMK AO2 SLP109 T02280211 =
2018-09-18 20:56 METAR KNYG 190056Z 32007KT 10SM CLR 23/22 A2984 RMK AO2 SLP106 T02330217 =
2018-09-18 19:56 METAR KNYG 182356Z 33008KT 5SM HZ CLR 26/21 A2983 RMK AO2 SLP101 60001 T02560211
                 10283 20250 52015 =
2018-09-18 18:56 METAR KNYG 182256Z 34006KT 10SM CLR 27/22 A2981 RMK AO2 SLP096 T02670217 =
2018-09-18 17:56 METAR KNYG 182156Z 03006KT 10SM SCT050 BKN060 28/22 A2980 RMK AO2 SLP091
                 T02780217 =
2018-09-18 16:56 METAR KNYG 182056Z 01011G17KT 10SM FEW040 BKN110 28/22 A2978 RMK AO2 SLP086
                 60001 T02830217 52002 =
2018-09-18 15:56 METAR KNYG 181956Z 36007KT 10SM SCT050 OVC090 27/22 A2978 RMK AO2 SLP084
                 T02670222 =
2018-09-18 15:09 METAR KNYG 181909Z 36009KT 10SM FEW021 SCT027 OVC035 26/23 A2978 RMK AO2
                 T02560228 =
2018-09-18 14:56 METAR KNYG 181856Z 35009KT 10SM BKN021 BKN028 OVC032 25/24 A2978 RMK AO2 RAE07
                 SLP086 CB SE P0001 T02500244 =

Support USWX by starting your Amazon purchase here.